Time,TemperatureF,DewpointF,PressureIn,WindDirection,WindDirectionDegrees,WindSpeedMPH,WindSpeedGustMPH,Humidity,HourlyPrecipIn,Conditions,Clouds,dailyrainin,SoftwareType,DateUTC
2013-03-16 00:00:00,43.8,41.6,29.72,North,349,3.0,5.0,92,0.00,,CLR,0.00,VWS V14.01,2013-03-16 05:00:00,
2013-03-16 00:04:00,43.5,41.3,29.72,ENE,75,2.0,6.0,92,0.00,,,0.00,VWS V14.01,2013-03-16 05:04:00,
2013-03-16 00:10:00,43.3,41.1,29.71,ENE,65,4.0,7.0,92,0.00,,,0.00,VWS V14.01,2013-03-16 05:10:00,
2013-03-16 00:15:00,43.3,41.4,29.71,East,79,3.0,7.0,93,0.00,,,0.00,VWS V14.01,2013-03-16 05:15:00,
2013-03-16 00:20:00,43.2,41.3,29.70,East,83,3.0,4.0,93,0.00,,,0.00,VWS V14.01,2013-03-16 05:20:00,
2013-03-16 00:25:00,43.1,41.2,29.70,NE,45,3.0,5.0,93,0.00,,,0.00,VWS V14.01,2013-03-16 05:25:00,
2013-03-16 00:30:00,43.0,41.1,29.70,East,90,2.0,5.0,93,0.00,,,0.00,VWS V14.01,2013-03-16 05:30:00,
2013-03-16 00:35:00,43.0,41.1,29.70,East,79,4.0,5.0,93,0.00,,,0.00,VWS V14.01,2013-03-16 05:35:00,
2013-03-16 00:40:00,43.0,41.1,29.69,NE,51,4.0,5.0,93,0.00,,,0.00,VWS V14.01,2013-03-16 05:40:00,
2013-03-16 00:45:00,42.9,41.0,29.69,ENE,78,4.0,5.0,93,0.00,,,0.00,VWS V14.01,2013-03-16 05:45:00,
2013-03-16 00:50:00,42.8,40.9,29.69,NE,55,3.0,5.0,93,0.00,,,0.00,VWS V14.01,2013-03-16 05:50:00,
2013-03-16 00:55:00,42.7,40.8,29.69,ENE,74,4.0,5.0,93,0.00,,,0.00,VWS V14.01,2013-03-16 05:55:00,
2013-03-16 01:00:00,42.5,40.6,29.68,East,91,2.0,7.0,93,0.00,,CLR,0.00,VWS V14.01,2013-03-16 06:00:00,
2013-03-16 01:01:00,42.5,40.6,29.68,SE,131,3.0,5.0,93,0.00,,,0.00,VWS V14.01,2013-03-16 06:01:00,
2013-03-16 01:06:00,42.4,40.5,29.68,ENE,71,3.0,7.0,93,0.00,,,0.00,VWS V14.01,2013-03-16 06:06:00,
2013-03-16 01:10:00,42.4,40.5,29.68,ENE,63,5.0,7.0,93,0.00,,CLR,0.00,VWS V14.01,2013-03-16 06:10:00,
2013-03-16 01:11:00,42.4,40.5,29.70,NNE,15,2.0,5.0,93,0.00,,,0.00,VWS V14.01,2013-03-16 06:11:00,
2013-03-16 01:17:00,42.1,40.2,29.71,NNE,27,3.0,7.0,93,0.00,,,0.00,VWS V14.01,2013-03-16 06:17:00,
2013-03-16 01:20:00,42.0,40.1,29.70,NE,54,3.0,7.0,93,0.00,,CLR,0.00,VWS V14.01,2013-03-16 06:20:00,
2013-03-16 01:22:00,41.7,39.8,29.71,NE,39,5.0,5.0,93,0.00,,,0.00,VWS V14.01,2013-03-16 06:22:00,
2013-03-16 01:27:00,41.6,39.7,29.72,NNE,30,2.0,7.0,93,0.00,,,0.00,VWS V14.01,2013-03-16 06:27:00,
2013-03-16 01:30:00,41.5,39.6,29.72,NNE,14,2.0,7.0,93,0.00,,CLR,0.00,VWS V14.01,2013-03-16 06:30:00,
2013-03-16 01:32:00,41.4,39.5,29.71,ENE,61,7.0,9.0,93,0.00,,,0.00,VWS V14.01,2013-03-16 06:32:00,
2013-03-16 01:37:00,41.0,39.1,29.72,NE,37,7.0,12.0,93,0.00,,,0.00,VWS V14.01,2013-03-16 06:37:00,
2013-03-16 01:40:00,40.9,39.0,29.72,NE,51,6.0,12.0,93,0.00,,CLR,0.00,VWS V14.01,2013-03-16 06:40:00,
2013-03-16 01:42:00,40.3,38.4,29.72,ENE,65,7.0,10.0,93,0.00,,,0.00,VWS V14.01,2013-03-16 06:42:00,
2013-03-16 01:48:00,39.5,37.7,29.72,ENE,75,13.0,13.0,93,0.00,,,0.00,VWS V14.01,2013-03-16 06:48:00,
2013-03-16 01:50:00,39.3,37.5,29.72,ENE,69,5.0,13.0,93,0.00,,CLR,0.00,VWS V14.01,2013-03-16 06:50:00,
2013-03-16 01:53:00,38.7,36.8,29.72,ENE,68,7.0,11.0,93,0.00,,,0.00,VWS V14.01,2013-03-16 06:53:00,
2013-03-16 01:58:00,38.3,36.7,29.73,ENE,61,1.0,11.0,94,0.00,,,0.00,VWS V14.01,2013-03-16 06:58:00,
2013-03-16 02:00:00,38.3,36.7,29.73,NE,51,2.0,11.0,94,0.00,,CLR,0.00,VWS V14.01,2013-03-16 07:00:00,
2013-03-16 02:03:00,38.1,36.5,29.73,NE,51,7.0,7.0,94,0.00,,,0.00,VWS V14.01,2013-03-16 07:03:00,
2013-03-16 02:08:00,37.8,36.2,29.71,ENE,72,4.0,8.0,94,0.00,,,0.00,VWS V14.01,2013-03-16 07:08:00,
2013-03-16 02:10:00,37.8,36.2,29.71,NE,50,3.0,8.0,94,0.00,,CLR,0.00,VWS V14.01,2013-03-16 07:10:00,
2013-03-16 02:13:00,37.5,36.2,29.72,NE,44,2.0,9.0,95,0.00,,,0.00,VWS V14.01,2013-03-16 07:13:00,
2013-03-16 02:18:00,37.3,36.0,29.72,ENE,61,5.0,9.0,95,0.00,,,0.00,VWS V14.01,2013-03-16 07:18:00,
2013-03-16 02:20:00,37.3,36.0,29.72,ENE,61,5.0,9.0,95,0.00,,CLR,0.00,VWS V14.01,2013-03-16 07:20:00,
2013-03-16 02:24:00,37.1,35.8,29.71,East,87,6.0,9.0,95,0.00,,,0.00,VWS V14.01,2013-03-16 07:24:00,
2013-03-16 02:29:00,36.9,35.6,29.69,SE,129,2.0,3.0,95,0.00,,,0.00,VWS V14.01,2013-03-16 07:29:00,
2013-03-16 02:30:00,36.9,35.6,29.70,ESE,111,1.0,11.0,95,0.00,,CLR,0.00,VWS V14.01,2013-03-16 07:30:00,
2013-03-16 02:34:00,36.8,35.5,29.70,ESE,119,5.0,6.0,95,0.00,,,0.00,VWS V14.01,2013-03-16 07:34:00,
2013-03-16 02:39:00,36.7,35.7,29.70,SE,133,0.0,1.0,96,0.00,,,0.00,VWS V14.01,2013-03-16 07:39:00,
2013-03-16 02:40:00,36.6,35.6,29.70,SE,134,1.0,8.0,96,0.00,,CLR,0.00,VWS V14.01,2013-03-16 07:40:00,
2013-03-16 02:44:00,36.5,35.5,29.71,East,81,2.0,5.0,96,0.00,,,0.00,VWS V14.01,2013-03-16 07:44:00,
2013-03-16 02:49:00,36.4,35.4,29.72,ENE,77,4.0,4.0,96,0.00,,,0.00,VWS V14.01,2013-03-16 07:49:00,
2013-03-16 02:50:00,36.4,35.4,29.71,ENE,60,4.0,6.0,96,0.00,,CLR,0.00,VWS V14.01,2013-03-16 07:50:00,
2013-03-16 02:54:00,36.3,35.3,29.71,NE,46,5.0,6.0,96,0.00,,,0.00,VWS V14.01,2013-03-16 07:54:00,
2013-03-16 02:59:00,36.2,35.2,29.71,ENE,65,5.0,5.0,96,0.00,,,0.00,VWS V14.01,2013-03-16 07:59:00,
2013-03-16 03:00:00,36.2,35.2,29.71,NE,46,3.0,7.0,96,0.00,,CLR,0.00,VWS V14.01,2013-03-16 08:00:00,
2013-03-16 03:05:00,36.1,35.1,29.71,ENE,58,4.0,7.0,96,0.00,,,0.00,VWS V14.01,2013-03-16 08:05:00,
2013-03-16 03:10:00,36.0,35.0,29.72,NE,44,3.0,7.0,96,0.00,,,0.00,VWS V14.01,2013-03-16 08:10:00,
2013-03-16 03:15:00,36.0,35.0,29.73,NNE,25,4.0,7.0,96,0.00,,,0.00,VWS V14.01,2013-03-16 08:15:00,
2013-03-16 03:20:00,36.0,35.0,29.73,NE,34,7.0,7.0,96,0.00,,,0.00,VWS V14.01,2013-03-16 08:20:00,
2013-03-16 03:25:00,35.9,34.9,29.73,NE,38,6.0,9.0,96,0.00,,,0.00,VWS V14.01,2013-03-16 08:25:00,
2013-03-16 03:30:00,35.9,34.9,29.74,ENE,64,6.0,6.0,96,0.00,,,0.00,VWS V14.01,2013-03-16 08:30:00,
2013-03-16 03:36:00,35.8,34.8,29.74,NE,53,4.0,7.0,96,0.00,,,0.00,VWS V14.01,2013-03-16 08:36:00,
2013-03-16 03:40:00,35.7,34.7,29.74,NE,55,6.0,7.0,96,0.00,,CLR,0.00,VWS V14.01,2013-03-16 08:40:00,
2013-03-16 03:41:00,35.7,34.7,29.74,NE,47,6.0,10.0,96,0.00,,,0.00,VWS V14.01,2013-03-16 08:41:00,
2013-03-16 03:46:00,35.5,34.5,29.74,East,82,7.0,10.0,96,0.00,,,0.00,VWS V14.01,2013-03-16 08:46:00,
2013-03-16 03:50:00,35.5,34.5,29.75,NNE,27,6.0,10.0,96,0.00,,CLR,0.00,VWS V14.01,2013-03-16 08:50:00,
2013-03-16 03:51:00,35.4,34.4,29.75,NE,38,5.0,7.0,96,0.00,,,0.00,VWS V14.01,2013-03-16 08:51:00,
2013-03-16 03:56:00,35.4,34.4,29.75,NE,38,4.0,8.0,96,0.00,,,0.00,VWS V14.01,2013-03-16 08:56:00,
2013-03-16 04:00:00,35.4,34.4,29.74,NE,54,5.0,8.0,96,0.00,,CLR,0.00,VWS V14.01,2013-03-16 09:00:00,
2013-03-16 04:02:00,35.4,34.4,29.75,NE,34,5.0,9.0,96,0.00,,,0.00,VWS V14.01,2013-03-16 09:02:00,
2013-03-16 04:07:00,35.4,34.4,29.74,NE,49,5.0,12.0,96,0.00,,,0.00,VWS V14.01,2013-03-16 09:07:00,
2013-03-16 04:10:00,35.4,34.4,29.74,NE,54,4.0,12.0,96,0.00,,CLR,0.00,VWS V14.01,2013-03-16 09:10:00,
2013-03-16 04:12:00,35.3,34.3,29.74,NE,55,5.0,9.0,96,0.00,,,0.00,VWS V14.01,2013-03-16 09:12:00,
2013-03-16 04:17:00,35.4,34.4,29.74,NE,39,3.0,9.0,96,0.00,,,0.00,VWS V14.01,2013-03-16 09:17:00,
2013-03-16 04:20:00,35.4,34.4,29.74,ENE,75,5.0,9.0,96,0.00,,CLR,0.00,VWS V14.01,2013-03-16 09:20:00,
2013-03-16 04:22:00,35.4,34.4,29.74,NNE,19,3.0,5.0,96,0.00,,,0.00,VWS V14.01,2013-03-16 09:22:00,
2013-03-16 04:27:00,35.4,34.4,29.74,NE,56,4.0,8.0,96,0.00,,,0.00,VWS V14.01,2013-03-16 09:27:00,
2013-03-16 04:30:00,35.3,34.3,29.75,NE,47,3.0,8.0,96,0.00,,CLR,0.00,VWS V14.01,2013-03-16 09:30:00,
2013-03-16 04:33:00,35.3,34.3,29.75,NE,47,6.0,8.0,96,0.00,,,0.00,VWS V14.01,2013-03-16 09:33:00,
2013-03-16 04:38:00,35.2,34.2,29.75,NE,41,2.0,8.0,96,0.00,,,0.00,VWS V14.01,2013-03-16 09:38:00,
2013-03-16 04:40:00,35.3,34.3,29.75,NNE,23,1.0,8.0,96,0.00,,CLR,0.00,VWS V14.01,2013-03-16 09:40:00,
2013-03-16 04:43:00,35.2,34.2,29.75,NE,46,3.0,8.0,96,0.00,,,0.00,VWS V14.01,2013-03-16 09:43:00,
2013-03-16 04:48:00,35.1,34.1,29.75,NE,42,5.0,8.0,96,0.00,,,0.00,VWS V14.01,2013-03-16 09:48:00,
2013-03-16 04:50:00,35.1,34.1,29.75,NE,55,1.0,8.0,96,0.00,,CLR,0.00,VWS V14.01,2013-03-16 09:50:00,
2013-03-16 04:53:00,35.1,34.1,29.75,NE,37,4.0,7.0,96,0.00,,,0.00,VWS V14.01,2013-03-16 09:53:00,
2013-03-16 04:58:00,35.1,34.1,29.76,NNE,15,4.0,10.0,96,0.00,,,0.00,VWS V14.01,2013-03-16 09:58:00,
2013-03-16 05:00:00,35.0,34.0,29.76,North,349,3.0,10.0,96,0.00,,CLR,0.00,VWS V14.01,2013-03-16 10:00:00,
2013-03-16 05:03:00,35.0,34.0,29.76,NE,41,3.0,6.0,96,0.00,,,0.00,VWS V14.01,2013-03-16 10:03:00,
2013-03-16 05:09:00,35.0,34.0,29.76,NE,55,3.0,3.0,96,0.00,,,0.00,VWS V14.01,2013-03-16 10:09:00,
2013-03-16 05:10:00,34.9,33.9,29.76,NE,54,3.0,7.0,96,0.00,,CLR,0.00,VWS V14.01,2013-03-16 10:10:00,
2013-03-16 05:14:00,34.9,33.9,29.77,NE,53,1.0,7.0,96,0.00,,,0.00,VWS V14.01,2013-03-16 10:14:00,
2013-03-16 05:19:00,34.9,33.9,29.77,NE,54,8.0,9.0,96,0.00,,,0.00,VWS V14.01,2013-03-16 10:19:00,
2013-03-16 05:20:00,34.9,33.9,29.77,NE,55,3.0,7.0,96,0.00,,CLR,0.00,VWS V14.01,2013-03-16 10:20:00,
2013-03-16 05:24:00,34.8,33.8,29.77,NNE,25,4.0,9.0,96,0.00,,,0.00,VWS V14.01,2013-03-16 10:24:00,
2013-03-16 05:29:00,34.8,33.8,29.77,NNE,20,4.0,6.0,96,0.00,,,0.00,VWS V14.01,2013-03-16 10:29:00,
2013-03-16 05:30:00,34.8,33.8,29.77,NNE,18,5.0,9.0,96,0.00,,CLR,0.00,VWS V14.01,2013-03-16 10:30:00,
2013-03-16 05:34:00,34.7,33.7,29.77,NNE,18,4.0,8.0,96,0.00,,,0.00,VWS V14.01,2013-03-16 10:34:00,
2013-03-16 05:39:00,34.7,33.7,29.77,NE,47,6.0,8.0,96,0.00,,,0.00,VWS V14.01,2013-03-16 10:39:00,
2013-03-16 05:40:00,34.7,33.7,29.77,NNE,30,4.0,8.0,96,0.00,,CLR,0.00,VWS V14.01,2013-03-16 10:40:00,
2013-03-16 05:44:00,34.7,33.7,29.77,NE,44,3.0,8.0,96,0.00,,,0.00,VWS V14.01,2013-03-16 10:44:00,
2013-03-16 05:49:00,34.6,33.6,29.78,NNE,12,2.0,4.0,96,0.00,,,0.00,VWS V14.01,2013-03-16 10:49:00,
2013-03-16 05:50:00,34.6,33.6,29.77,NE,34,3.0,8.0,96,0.00,,CLR,0.00,VWS V14.01,2013-03-16 10:50:00,
2013-03-16 05:54:00,34.6,33.6,29.78,NE,54,5.0,8.0,96,0.00,,,0.00,VWS V14.01,2013-03-16 10:54:00,
2013-03-16 06:00:00,34.6,33.6,29.78,NE,56,4.0,6.0,96,0.00,,,0.00,VWS V14.01,2013-03-16 11:00:00,
2013-03-16 06:05:00,34.6,33.8,29.79,NE,45,1.0,6.0,97,0.00,,,0.00,VWS V14.01,2013-03-16 11:05:00,
2013-03-16 06:10:00,34.6,33.8,29.79,NE,47,1.0,2.0,97,0.00,,,0.00,VWS V14.01,2013-03-16 11:10:00,
2013-03-16 06:15:00,34.6,33.8,29.80,NNE,33,2.0,2.0,97,0.00,,,0.00,VWS V14.01,2013-03-16 11:15:00,
2013-03-16 06:20:00,34.6,33.8,29.80,NW,326,0.0,2.0,97,0.00,,,0.00,VWS V14.01,2013-03-16 11:20:00,
2013-03-16 06:26:00,34.6,33.8,29.81,NE,47,3.0,4.0,97,0.00,,,0.00,VWS V14.01,2013-03-16 11:26:00,
2013-03-16 06:30:00,34.6,33.8,29.81,NNE,23,1.0,4.0,97,0.00,,CLR,0.00,VWS V14.01,2013-03-16 11:30:00,
2013-03-16 06:31:00,34.6,33.8,29.82,NW,316,2.0,3.0,97,0.00,,,0.00,VWS V14.01,2013-03-16 11:31:00,
2013-03-16 06:36:00,34.6,33.8,29.82,WNW,300,2.0,4.0,97,0.00,,,0.00,VWS V14.01,2013-03-16 11:36:00,
2013-03-16 06:40:00,34.5,33.7,29.82,North,8,2.0,4.0,97,0.00,,CLR,0.00,VWS V14.01,2013-03-16 11:40:00,
2013-03-16 06:41:00,34.5,33.7,29.82,NNE,25,1.0,3.0,97,0.00,,,0.00,VWS V14.01,2013-03-16 11:41:00,
2013-03-16 06:47:00,34.5,33.7,29.83,NW,318,1.0,7.0,97,0.00,,,0.00,VWS V14.01,2013-03-16 11:47:00,
2013-03-16 06:50:00,34.4,33.6,29.83,NE,46,4.0,7.0,97,0.00,,CLR,0.00,VWS V14.01,2013-03-16 11:50:00,
2013-03-16 06:52:00,34.4,33.6,29.83,NNE,12,1.0,4.0,97,0.00,,,0.00,VWS V14.01,2013-03-16 11:52:00,
2013-03-16 06:57:00,34.4,33.6,29.83,NW,304,0.0,4.0,97,0.00,,,0.00,VWS V14.01,2013-03-16 11:57:00,
2013-03-16 07:00:00,34.4,33.6,29.83,NNW,327,1.0,4.0,97,0.00,,CLR,0.00,VWS V14.01,2013-03-16 12:00:00,
2013-03-16 07:02:00,34.4,33.6,29.83,NE,38,4.0,4.0,97,0.00,,,0.00,VWS V14.01,2013-03-16 12:02:00,
2013-03-16 07:07:00,34.4,33.6,29.84,North,355,3.0,4.0,97,0.00,,,0.00,VWS V14.01,2013-03-16 12:07:00,
2013-03-16 07:10:00,34.3,33.5,29.84,NE,38,0.0,4.0,97,0.00,,CLR,0.00,VWS V14.01,2013-03-16 12:10:00,
2013-03-16 07:13:00,34.3,33.5,29.84,WNW,302,0.0,4.0,97,0.00,,,0.00,VWS V14.01,2013-03-16 12:13:00,
2013-03-16 07:18:00,34.3,33.5,29.85,NNW,330,1.0,4.0,97,0.00,,,0.00,VWS V14.01,2013-03-16 12:18:00,
2013-03-16 07:20:00,34.3,33.5,29.85,NNE,28,2.0,4.0,97,0.00,,CLR,0.00,VWS V14.01,2013-03-16 12:20:00,
2013-03-16 07:23:00,34.3,33.5,29.84,North,349,1.0,5.0,97,0.00,,,0.00,VWS V14.01,2013-03-16 12:23:00,
2013-03-16 07:28:00,34.2,33.4,29.85,NNE,27,0.0,5.0,97,0.00,,,0.00,VWS V14.01,2013-03-16 12:28:00,
2013-03-16 07:30:00,34.3,33.5,29.85,NNE,27,0.0,5.0,97,0.00,,CLR,0.00,VWS V14.01,2013-03-16 12:30:00,
2013-03-16 07:33:00,34.2,33.4,29.85,NNE,28,4.0,5.0,97,0.00,,,0.00,VWS V14.01,2013-03-16 12:33:00,
2013-03-16 07:38:00,34.1,33.3,29.85,NE,38,2.0,5.0,97,0.00,,,0.00,VWS V14.01,2013-03-16 12:38:00,
2013-03-16 07:40:00,34.1,33.3,29.85,NE,38,2.0,5.0,97,0.00,,CLR,0.00,VWS V14.01,2013-03-16 12:40:00,
2013-03-16 07:43:00,34.0,33.2,29.85,NE,49,2.0,3.0,97,0.00,,,0.00,VWS V14.01,2013-03-16 12:43:00,
2013-03-16 07:48:00,34.1,33.3,29.85,NNE,29,0.0,3.0,97,0.00,,,0.00,VWS V14.01,2013-03-16 12:48:00,
2013-03-16 07:50:00,34.1,33.3,29.85,NNE,29,0.0,3.0,97,0.00,,CLR,0.00,VWS V14.01,2013-03-16 12:50:00,
2013-03-16 07:54:00,34.1,33.3,29.86,NNW,337,1.0,2.0,97,0.00,,,0.00,VWS V14.01,2013-03-16 12:54:00,
2013-03-16 07:59:00,34.1,33.3,29.87,NW,316,1.0,1.0,97,0.00,,,0.00,VWS V14.01,2013-03-16 12:59:00,
2013-03-16 08:00:00,34.1,33.3,29.87,NW,318,0.0,2.0,97,0.00,,CLR,0.00,VWS V14.01,2013-03-16 13:00:00,
2013-03-16 08:04:00,34.1,33.3,29.87,NW,304,1.0,2.0,97,0.00,,,0.00,VWS V14.01,2013-03-16 13:04:00,
2013-03-16 08:09:00,34.1,33.3,29.88,NW,309,2.0,6.0,97,0.00,,,0.00,VWS V14.01,2013-03-16 13:09:00,
2013-03-16 08:10:00,34.1,33.3,29.88,WNW,302,4.0,4.0,97,0.00,,CLR,0.00,VWS V14.01,2013-03-16 13:10:00,
2013-03-16 08:14:00,34.0,33.2,29.88,WNW,300,4.0,6.0,97,0.00,,,0.00,VWS V14.01,2013-03-16 13:14:00,
2013-03-16 08:19:00,34.0,33.2,29.88,NW,310,4.0,5.0,97,0.00,,,0.00,VWS V14.01,2013-03-16 13:19:00,
2013-03-16 08:20:00,34.0,33.2,29.88,North,6,0.0,6.0,97,0.00,,CLR,0.00,VWS V14.01,2013-03-16 13:20:00,
2013-03-16 08:24:00,34.0,33.2,29.89,NNW,343,4.0,6.0,97,0.00,,,0.00,VWS V14.01,2013-03-16 13:24:00,
2013-03-16 08:30:00,34.0,33.2,29.89,NW,312,0.0,3.0,97,0.00,,,0.00,VWS V14.01,2013-03-16 13:30:00,
2013-03-16 08:35:00,34.0,33.2,29.90,NW,319,5.0,11.0,97,0.00,,,0.00,VWS V14.01,2013-03-16 13:35:00,
2013-03-16 08:40:00,34.0,33.2,29.90,NW,305,4.0,6.0,97,0.00,,,0.00,VWS V14.01,2013-03-16 13:40:00,
2013-03-16 08:45:00,33.9,33.1,29.91,North,351,3.0,8.0,97,0.00,,,0.00,VWS V14.01,2013-03-16 13:45:00,
2013-03-16 08:50:00,33.9,32.9,29.91,NW,312,3.0,6.0,96,0.00,,,0.00,VWS V14.01,2013-03-16 13:50:00,
2013-03-16 08:55:00,33.8,32.8,29.92,NW,316,3.0,6.0,96,0.00,,,0.00,VWS V14.01,2013-03-16 13:55:00,
2013-03-16 09:00:00,33.7,32.7,29.92,North,11,3.0,6.0,96,0.00,,,0.00,VWS V14.01,2013-03-16 14:00:00,
2013-03-16 09:06:00,33.7,32.7,29.93,NNE,29,4.0,6.0,96,0.00,,,0.00,VWS V14.01,2013-03-16 14:06:00,
2013-03-16 09:10:00,33.7,32.7,29.92,NE,39,4.0,6.0,96,0.00,,CLR,0.00,VWS V14.01,2013-03-16 14:10:00,
2013-03-16 09:11:00,33.7,32.7,29.93,NNW,347,2.0,4.0,96,0.00,,,0.00,VWS V14.01,2013-03-16 14:11:00,
2013-03-16 09:16:00,33.7,32.7,29.93,NNW,343,1.0,6.0,96,0.00,,,0.00,VWS V14.01,2013-03-16 14:16:00,
2013-03-16 09:20:00,33.7,32.7,29.93,NE,55,1.0,6.0,96,0.00,,CLR,0.00,VWS V14.01,2013-03-16 14:20:00,
2013-03-16 09:21:00,33.7,32.7,29.93,NNW,347,1.0,4.0,96,0.00,,,0.00,VWS V14.01,2013-03-16 14:21:00,
2013-03-16 09:27:00,33.6,32.3,29.94,NW,304,3.0,8.0,95,0.00,,,0.00,VWS V14.01,2013-03-16 14:27:00,
2013-03-16 09:30:00,33.6,32.3,29.94,NW,314,1.0,8.0,95,0.00,,CLR,0.00,VWS V14.01,2013-03-16 14:30:00,
2013-03-16 09:32:00,33.5,32.2,29.94,NW,326,2.0,6.0,95,0.00,,,0.00,VWS V14.01,2013-03-16 14:32:00,
2013-03-16 09:37:00,33.6,32.3,29.94,NNE,13,1.0,6.0,95,0.00,,,0.00,VWS V14.01,2013-03-16 14:37:00,
2013-03-16 09:40:00,33.6,32.3,29.94,NNE,31,4.0,6.0,95,0.00,,CLR,0.00,VWS V14.01,2013-03-16 14:40:00,
2013-03-16 09:42:00,33.6,32.3,29.94,NNW,334,2.0,4.0,95,0.00,,,0.00,VWS V14.01,2013-03-16 14:42:00,
2013-03-16 09:47:00,33.6,32.3,29.94,NW,311,3.0,7.0,95,0.00,,,0.00,VWS V14.01,2013-03-16 14:47:00,
2013-03-16 09:50:00,33.6,32.3,29.94,North,349,2.0,7.0,95,0.00,,CLR,0.00,VWS V14.01,2013-03-16 14:50:00,
2013-03-16 09:52:00,33.6,32.3,29.94,NNE,13,3.0,10.0,95,0.00,,,0.00,VWS V14.01,2013-03-16 14:52:00,
2013-03-16 09:58:00,33.6,32.3,29.94,NE,47,2.0,10.0,95,0.00,,,0.00,VWS V14.01,2013-03-16 14:58:00,
2013-03-16 10:00:00,33.6,32.3,29.95,WNW,291,6.0,10.0,95,0.00,,CLR,0.00,VWS V14.01,2013-03-16 15:00:00,
2013-03-16 10:03:00,33.6,32.3,29.95,NNE,22,2.0,5.0,95,0.00,,,0.00,VWS V14.01,2013-03-16 15:03:00,
2013-03-16 10:08:00,33.6,32.3,29.95,NNE,13,3.0,8.0,95,0.00,,,0.00,VWS V14.01,2013-03-16 15:08:00,
2013-03-16 10:10:00,33.6,32.3,29.95,NE,49,3.0,8.0,95,0.00,,CLR,0.00,VWS V14.01,2013-03-16 15:10:00,
2013-03-16 10:13:00,33.6,32.3,29.95,NW,312,5.0,6.0,95,0.00,,,0.00,VWS V14.01,2013-03-16 15:13:00,
2013-03-16 10:18:00,33.6,32.3,29.95,NW,309,2.0,6.0,95,0.00,,,0.00,VWS V14.01,2013-03-16 15:18:00,
2013-03-16 10:20:00,33.6,32.3,29.95,NW,316,3.0,6.0,95,0.00,,CLR,0.00,VWS V14.01,2013-03-16 15:20:00,
2013-03-16 10:23:00,33.7,32.4,29.96,WNW,292,2.0,4.0,95,0.00,,,0.00,VWS V14.01,2013-03-16 15:23:00,
2013-03-16 10:28:00,33.8,32.5,29.96,NNE,25,4.0,5.0,95,0.00,,,0.00,VWS V14.01,2013-03-16 15:28:00,
2013-03-16 10:30:00,33.8,32.5,29.96,NNE,25,4.0,5.0,95,0.00,,CLR,0.00,VWS V14.01,2013-03-16 15:30:00,
2013-03-16 10:34:00,33.8,32.5,29.96,NW,312,2.0,7.0,95,0.00,,,0.00,VWS V14.01,2013-03-16 15:34:00,
2013-03-16 10:39:00,33.8,32.5,29.96,NNW,336,3.0,4.0,95,0.00,,,0.00,VWS V14.01,2013-03-16 15:39:00,
2013-03-16 10:40:00,33.8,32.5,29.96,NW,322,4.0,7.0,95,0.00,,CLR,0.00,VWS V14.01,2013-03-16 15:40:00,
2013-03-16 10:44:00,33.8,32.5,29.97,North,354,2.0,6.0,95,0.00,,,0.00,VWS V14.01,2013-03-16 15:44:00,
2013-03-16 10:49:00,33.9,32.6,29.97,NNE,17,4.0,5.0,95,0.00,,,0.00,VWS V14.01,2013-03-16 15:49:00,
2013-03-16 10:50:00,33.9,32.6,29.97,WNW,293,4.0,6.0,95,0.00,,CLR,0.00,VWS V14.01,2013-03-16 15:50:00,
2013-03-16 10:54:00,33.9,32.6,29.97,North,10,3.0,8.0,95,0.00,,,0.00,VWS V14.01,2013-03-16 15:54:00,
2013-03-16 10:59:00,33.9,32.6,29.98,NW,321,3.0,7.0,95,0.00,,,0.00,VWS V14.01,2013-03-16 15:59:00,
2013-03-16 11:00:00,33.9,32.6,29.98,WNW,302,2.0,8.0,95,0.00,,CLR,0.00,VWS V14.01,2013-03-16 16:00:00,
2013-03-16 11:04:00,33.9,32.6,29.99,North,356,3.0,8.0,95,0.00,,,0.00,VWS V14.01,2013-03-16 16:04:00,
2013-03-16 11:09:00,34.1,32.8,29.98,WNW,296,3.0,4.0,95,0.00,,,0.00,VWS V14.01,2013-03-16 16:09:00,
2013-03-16 11:10:00,34.1,32.8,29.98,ENE,65,1.0,8.0,95,0.00,,CLR,0.00,VWS V14.01,2013-03-16 16:10:00,
2013-03-16 11:14:00,34.2,32.7,29.99,NNW,330,2.0,5.0,94,0.00,,,0.00,VWS V14.01,2013-03-16 16:14:00,
2013-03-16 11:20:00,34.3,32.8,29.99,WNW,302,7.0,7.0,94,0.00,,,0.00,VWS V14.01,2013-03-16 16:20:00,
2013-03-16 11:25:00,34.4,32.6,29.99,NW,323,3.0,7.0,93,0.00,,,0.00,VWS V14.01,2013-03-16 16:25:00,
2013-03-16 11:30:00,34.6,32.8,29.99,NNE,13,2.0,8.0,93,0.00,,,0.00,VWS V14.01,2013-03-16 16:30:00,
2013-03-16 11:35:00,34.8,32.7,29.99,North,7,3.0,8.0,92,0.00,,,0.00,VWS V14.01,2013-03-16 16:35:00,
2013-03-16 11:40:00,34.8,32.5,30.00,NW,309,2.0,8.0,91,0.00,,,0.00,VWS V14.01,2013-03-16 16:40:00,
2013-03-16 11:46:00,35.1,32.7,30.00,WNW,289,1.0,8.0,91,0.00,,,0.00,VWS V14.01,2013-03-16 16:46:00,
2013-03-16 11:50:00,35.1,32.7,30.00,WNW,301,4.0,8.0,91,0.00,,CLR,0.00,VWS V14.01,2013-03-16 16:50:00,
2013-03-16 11:51:00,35.1,32.5,30.00,NE,34,2.0,9.0,90,0.00,,,0.00,VWS V14.01,2013-03-16 16:51:00,
2013-03-16 11:56:00,35.3,32.7,30.00,NNW,342,4.0,9.0,90,0.00,,,0.00,VWS V14.01,2013-03-16 16:56:00,
2013-03-16 12:00:00,35.3,32.7,30.00,NNE,27,3.0,9.0,90,0.00,,CLR,0.00,VWS V14.01,2013-03-16 17:00:00,
2013-03-16 12:01:00,35.2,32.3,30.00,NE,56,4.0,9.0,89,0.00,,,0.00,VWS V14.01,2013-03-16 17:01:00,
2013-03-16 12:07:00,35.3,32.4,30.01,NNW,337,1.0,9.0,89,0.00,,,0.00,VWS V14.01,2013-03-16 17:07:00,
2013-03-16 12:10:00,35.4,32.5,30.00,NW,309,3.0,9.0,89,0.00,,CLR,0.00,VWS V14.01,2013-03-16 17:10:00,
2013-03-16 12:12:00,35.4,32.2,30.00,NNW,337,1.0,8.0,88,0.00,,,0.00,VWS V14.01,2013-03-16 17:12:00,
2013-03-16 12:17:00,35.7,32.8,30.01,WNW,290,2.0,8.0,89,0.00,,,0.00,VWS V14.01,2013-03-16 17:17:00,
2013-03-16 12:20:00,35.9,32.7,30.01,WNW,289,3.0,8.0,88,0.00,,CLR,0.00,VWS V14.01,2013-03-16 17:20:00,
2013-03-16 12:22:00,36.0,32.5,30.01,NW,318,1.0,6.0,87,0.00,,,0.00,VWS V14.01,2013-03-16 17:22:00,
2013-03-16 12:27:00,36.3,32.8,30.01,NNE,19,3.0,6.0,87,0.00,,,0.00,VWS V14.01,2013-03-16 17:27:00,
2013-03-16 12:30:00,36.3,32.8,30.01,NW,316,5.0,6.0,87,0.00,,CLR,0.00,VWS V14.01,2013-03-16 17:30:00,
2013-03-16 12:32:00,36.3,32.5,30.01,North,10,2.0,6.0,86,0.00,,,0.00,VWS V14.01,2013-03-16 17:32:00,
2013-03-16 12:38:00,36.3,32.8,30.02,NNE,14,4.0,10.0,87,0.00,,,0.00,VWS V14.01,2013-03-16 17:38:00,
2013-03-16 12:40:00,36.3,32.8,30.02,North,11,4.0,10.0,87,0.00,,CLR,0.00,VWS V14.01,2013-03-16 17:40:00,
2013-03-16 12:43:00,36.3,32.5,30.01,NE,34,8.0,10.0,86,0.00,,,0.00,VWS V14.01,2013-03-16 17:43:00,
2013-03-16 12:48:00,36.2,32.4,30.01,North,4,1.0,10.0,86,0.00,,,0.00,VWS V14.01,2013-03-16 17:48:00,
2013-03-16 12:50:00,36.3,32.5,30.02,NNE,14,5.0,10.0,86,0.00,,CLR,0.00,VWS V14.01,2013-03-16 17:50:00,
2013-03-16 12:53:00,36.5,32.7,30.02,NW,326,3.0,7.0,86,0.00,,,0.00,VWS V14.01,2013-03-16 17:53:00,
2013-03-16 12:58:00,36.8,33.0,30.02,ENE,63,5.0,9.0,86,0.00,,,0.00,VWS V14.01,2013-03-16 17:58:00,
2013-03-16 13:00:00,36.8,33.0,30.02,ENE,73,5.0,9.0,86,0.00,,CLR,0.00,VWS V14.01,2013-03-16 18:00:00,
2013-03-16 13:03:00,37.0,32.9,30.02,NNE,22,4.0,7.0,85,0.00,,,0.00,VWS V14.01,2013-03-16 18:03:00,
2013-03-16 13:08:00,37.4,33.0,30.02,NNE,19,1.0,7.0,84,0.00,,,0.00,VWS V14.01,2013-03-16 18:08:00,
2013-03-16 13:10:00,37.4,33.0,30.02,NNE,19,1.0,7.0,84,0.00,,CLR,0.00,VWS V14.01,2013-03-16 18:10:00,
2013-03-16 13:14:00,37.6,32.6,30.02,NE,53,8.0,8.0,82,0.00,,,0.00,VWS V14.01,2013-03-16 18:14:00,
2013-03-16 13:19:00,37.6,32.6,30.02,NW,304,2.0,2.0,82,0.00,,,0.00,VWS V14.01,2013-03-16 18:19:00,
2013-03-16 13:20:00,37.6,32.9,30.02,NNE,27,2.0,8.0,83,0.00,,CLR,0.00,VWS V14.01,2013-03-16 18:20:00,
2013-03-16 13:24:00,37.9,32.6,30.02,WNW,293,2.0,8.0,81,0.00,,,0.00,VWS V14.01,2013-03-16 18:24:00,
2013-03-16 13:29:00,38.2,32.9,30.02,NNW,335,2.0,4.0,81,0.00,,,0.00,VWS V14.01,2013-03-16 18:29:00,
2013-03-16 13:30:00,38.2,32.6,30.02,NW,312,3.0,8.0,80,0.00,,CLR,0.00,VWS V14.01,2013-03-16 18:30:00,
2013-03-16 13:34:00,38.4,33.1,30.02,NNE,32,5.0,8.0,81,0.00,,,0.00,VWS V14.01,2013-03-16 18:34:00,
2013-03-16 13:40:00,38.5,32.9,30.02,NNE,12,1.0,6.0,80,0.00,,,0.00,VWS V14.01,2013-03-16 18:40:00,
2013-03-16 13:45:00,38.5,32.6,30.02,NE,56,5.0,11.0,79,0.00,,,0.00,VWS V14.01,2013-03-16 18:45:00,
2013-03-16 13:50:00,38.0,32.4,30.02,ENE,68,6.0,7.0,80,0.00,,,0.00,VWS V14.01,2013-03-16 18:50:00,
2013-03-16 13:55:00,37.7,32.1,30.03,NE,40,5.0,10.0,80,0.00,,,0.00,VWS V14.01,2013-03-16 18:55:00,
2013-03-16 14:00:00,37.5,31.9,30.03,NE,37,5.0,11.0,80,0.00,,,0.00,VWS V14.01,2013-03-16 19:00:00,
2013-03-16 14:05:00,37.5,31.6,30.03,NNW,330,3.0,11.0,79,0.00,,,0.00,VWS V14.01,2013-03-16 19:05:00,
2013-03-16 14:10:00,37.6,31.4,30.03,NNW,340,2.0,5.0,78,0.00,,,0.00,VWS V14.01,2013-03-16 19:10:00,
2013-03-16 14:16:00,38.3,32.0,30.03,North,349,3.0,9.0,78,0.00,,,0.00,VWS V14.01,2013-03-16 19:16:00,
2013-03-16 14:20:00,38.5,31.6,30.03,North,8,4.0,9.0,76,0.00,,CLR,0.00,VWS V14.01,2013-03-16 19:20:00,
2013-03-16 14:21:00,38.4,31.8,30.03,North,360,5.0,8.0,77,0.00,,,0.00,VWS V14.01,2013-03-16 19:21:00,
2013-03-16 14:26:00,38.1,31.5,30.03,NE,53,8.0,11.0,77,0.00,,,0.00,VWS V14.01,2013-03-16 19:26:00,
2013-03-16 14:30:00,37.9,30.7,30.03,NNW,335,2.0,11.0,75,0.00,,CLR,0.00,VWS V14.01,2013-03-16 19:30:00,
2013-03-16 14:32:00,38.1,31.5,30.03,North,356,4.0,8.0,77,0.00,,,0.00,VWS V14.01,2013-03-16 19:32:00,
2013-03-16 14:37:00,38.4,31.2,30.03,North,349,4.0,10.0,75,0.00,,,0.00,VWS V14.01,2013-03-16 19:37:00,
2013-03-16 14:40:00,38.5,31.3,30.03,WNW,295,1.0,10.0,75,0.00,,CLR,0.00,VWS V14.01,2013-03-16 19:40:00,
2013-03-16 14:42:00,38.7,31.5,30.03,North,354,3.0,9.0,75,0.00,,,0.00,VWS V14.01,2013-03-16 19:42:00,
2013-03-16 14:47:00,39.1,31.9,30.03,WNW,303,3.0,9.0,75,0.00,,,0.00,VWS V14.01,2013-03-16 19:47:00,
2013-03-16 14:50:00,39.5,31.9,30.03,NW,309,4.0,9.0,74,0.00,,CLR,0.00,VWS V14.01,2013-03-16 19:50:00,
2013-03-16 14:52:00,39.7,31.4,30.03,NNE,21,2.0,9.0,72,0.00,,,0.00,VWS V14.01,2013-03-16 19:52:00,
2013-03-16 14:57:00,39.6,31.7,30.04,NNE,15,2.0,9.0,73,0.00,,,0.00,VWS V14.01,2013-03-16 19:57:00,
2013-03-16 15:00:00,39.6,31.7,30.04,NNW,330,2.0,9.0,73,0.00,,CLR,0.00,VWS V14.01,2013-03-16 20:00:00,
2013-03-16 15:02:00,39.6,31.3,30.04,NNE,30,6.0,8.0,72,0.00,,,0.00,VWS V14.01,2013-03-16 20:02:00,
2013-03-16 15:08:00,39.0,30.8,30.04,NNW,340,3.0,10.0,72,0.00,,,0.00,VWS V14.01,2013-03-16 20:08:00,
2013-03-16 15:10:00,38.9,30.7,30.04,NNE,25,5.0,10.0,72,0.00,,CLR,0.00,VWS V14.01,2013-03-16 20:10:00,
2013-03-16 15:13:00,38.6,30.7,30.05,NW,323,4.0,6.0,73,0.00,,,0.00,VWS V14.01,2013-03-16 20:13:00,
2013-03-16 15:18:00,38.6,30.7,30.05,NNW,338,2.0,7.0,73,0.00,,,0.00,VWS V14.01,2013-03-16 20:18:00,
2013-03-16 15:20:00,38.6,30.7,30.05,WNW,300,3.0,7.0,73,0.00,,CLR,0.00,VWS V14.01,2013-03-16 20:20:00,
2013-03-16 15:23:00,38.5,30.6,30.04,WNW,295,3.0,6.0,73,0.00,,,0.00,VWS V14.01,2013-03-16 20:23:00,
2013-03-16 15:28:00,38.5,30.6,30.04,WNW,302,3.0,9.0,73,0.00,,,0.00,VWS V14.01,2013-03-16 20:28:00,
2013-03-16 15:30:00,38.5,30.6,30.05,NW,319,2.0,9.0,73,0.00,,CLR,0.00,VWS V14.01,2013-03-16 20:30:00,
2013-03-16 15:34:00,38.4,30.9,30.05,NW,322,2.0,6.0,74,0.00,,,0.00,VWS V14.01,2013-03-16 20:34:00,
2013-03-16 15:39:00,38.4,30.5,30.05,NE,52,5.0,5.0,73,0.00,,,0.00,VWS V14.01,2013-03-16 20:39:00,
2013-03-16 15:40:00,38.4,30.5,30.05,NE,37,5.0,8.0,73,0.00,,CLR,0.00,VWS V14.01,2013-03-16 20:40:00,
2013-03-16 15:44:00,38.0,30.5,30.05,NNE,18,6.0,10.0,74,0.00,,,0.00,VWS V14.01,2013-03-16 20:44:00,
2013-03-16 15:49:00,38.0,30.1,30.05,NNE,27,2.0,4.0,73,0.00,,,0.00,VWS V14.01,2013-03-16 20:49:00,
2013-03-16 15:50:00,38.0,30.5,30.05,NNW,328,3.0,10.0,74,0.00,,CLR,0.00,VWS V14.01,2013-03-16 20:50:00,
2013-03-16 15:54:00,38.1,30.2,30.05,NNE,20,4.0,9.0,73,0.00,,,0.00,VWS V14.01,2013-03-16 20:54:00,
2013-03-16 15:59:00,37.9,29.7,30.05,ENE,62,5.0,7.0,72,0.00,,,0.00,VWS V14.01,2013-03-16 20:59:00,
2013-03-16 16:00:00,37.9,30.0,30.05,NE,34,5.0,9.0,73,0.00,,CLR,0.00,VWS V14.01,2013-03-16 21:00:00,
2013-03-16 16:04:00,37.4,29.5,30.05,NNE,33,2.0,9.0,73,0.00,,,0.00,VWS V14.01,2013-03-16 21:04:00,
2013-03-16 16:09:00,37.2,29.4,30.06,ENE,61,6.0,6.0,73,0.00,,,0.00,VWS V14.01,2013-03-16 21:09:00,
2013-03-16 16:10:00,37.2,29.4,30.06,ENE,61,3.0,12.0,73,0.00,,CLR,0.00,VWS V14.01,2013-03-16 21:10:00,
2013-03-16 16:15:00,37.2,29.4,30.06,NE,44,2.0,6.0,73,0.00,,,0.00,VWS V14.01,2013-03-16 21:15:00,
2013-03-16 16:20:00,37.4,29.9,30.06,NNE,12,1.0,3.0,74,0.00,,,0.00,VWS V14.01,2013-03-16 21:20:00,
2013-03-16 16:25:00,37.5,29.6,30.06,NW,319,2.0,6.0,73,0.00,,,0.00,VWS V14.01,2013-03-16 21:25:00,
2013-03-16 16:30:00,37.3,29.5,30.06,NE,38,2.0,4.0,73,0.00,,,0.00,VWS V14.01,2013-03-16 21:30:00,
2013-03-16 16:35:00,37.4,29.5,30.07,NNE,22,4.0,5.0,73,0.00,,,0.00,VWS V14.01,2013-03-16 21:35:00,
2013-03-16 16:40:00,37.3,29.8,30.07,ENE,63,3.0,4.0,74,0.00,,,0.00,VWS V14.01,2013-03-16 21:40:00,
2013-03-16 16:45:00,37.1,29.6,30.07,North,11,2.0,5.0,74,0.00,,,0.00,VWS V14.01,2013-03-16 21:45:00,
2013-03-16 16:50:00,37.1,29.6,30.07,NE,54,3.0,5.0,74,0.00,,CLR,0.00,VWS V14.01,2013-03-16 21:50:00,
2013-03-16 16:51:00,37.0,29.5,30.07,NE,44,3.0,4.0,74,0.00,,,0.00,VWS V14.01,2013-03-16 21:51:00,
2013-03-16 16:56:00,37.1,29.9,30.06,NNE,23,4.0,7.0,75,0.00,,,0.00,VWS V14.01,2013-03-16 21:56:00,
2013-03-16 17:00:00,37.0,29.5,30.06,NE,45,2.0,7.0,74,0.00,,CLR,0.00,VWS V14.01,2013-03-16 22:00:00,
2013-03-16 17:01:00,37.0,29.5,30.06,NW,323,1.0,3.0,74,0.00,,,0.00,VWS V14.01,2013-03-16 22:01:00,
2013-03-16 17:06:00,37.0,29.8,30.06,NNE,16,1.0,4.0,75,0.00,,,0.00,VWS V14.01,2013-03-16 22:06:00,
2013-03-16 17:10:00,37.0,29.8,30.06,NNE,25,2.0,4.0,75,0.00,,CLR,0.00,VWS V14.01,2013-03-16 22:10:00,
2013-03-16 17:11:00,36.9,29.7,30.06,ENE,57,4.0,6.0,75,0.00,,,0.00,VWS V14.01,2013-03-16 22:11:00,
2013-03-16 17:17:00,36.8,29.6,30.06,ENE,62,4.0,6.0,75,0.00,,,0.00,VWS V14.01,2013-03-16 22:17:00,
2013-03-16 17:20:00,36.8,30.0,30.07,East,101,4.0,6.0,76,0.00,,CLR,0.00,VWS V14.01,2013-03-16 22:20:00,
2013-03-16 17:22:00,36.8,30.0,30.07,NNE,30,0.0,5.0,76,0.00,,,0.00,VWS V14.01,2013-03-16 22:22:00,
2013-03-16 17:27:00,36.8,30.0,30.07,NW,319,1.0,5.0,76,0.00,,,0.00,VWS V14.01,2013-03-16 22:27:00,
2013-03-16 17:30:00,36.8,30.0,30.07,NNE,28,2.0,5.0,76,0.00,,CLR,0.00,VWS V14.01,2013-03-16 22:30:00,
2013-03-16 17:32:00,36.7,29.9,30.07,NE,51,2.0,4.0,76,0.00,,,0.00,VWS V14.01,2013-03-16 22:32:00,
2013-03-16 17:37:00,36.5,29.3,30.07,NE,34,6.0,7.0,75,0.00,,,0.00,VWS V14.01,2013-03-16 22:37:00,
2013-03-16 17:40:00,36.4,29.2,30.07,NE,54,4.0,7.0,75,0.00,,CLR,0.00,VWS V14.01,2013-03-16 22:40:00,
2013-03-16 17:42:00,36.3,29.5,30.07,NE,54,3.0,4.0,76,0.00,,,0.00,VWS V14.01,2013-03-16 22:42:00,
2013-03-16 17:48:00,36.2,29.4,30.07,NE,40,5.0,9.0,76,0.00,,,0.00,VWS V14.01,2013-03-16 22:48:00,
2013-03-16 17:50:00,36.2,29.0,30.07,NE,39,2.0,9.0,75,0.00,,CLR,0.00,VWS V14.01,2013-03-16 22:50:00,
2013-03-16 17:53:00,36.1,29.3,30.07,NNE,30,2.0,7.0,76,0.00,,,0.00,VWS V14.01,2013-03-16 22:53:00,
2013-03-16 17:58:00,36.1,29.3,30.07,NE,56,5.0,7.0,76,0.00,,,0.00,VWS V14.01,2013-03-16 22:58:00,
2013-03-16 18:00:00,36.1,29.3,30.07,ENE,65,6.0,7.0,76,0.00,,CLR,0.00,VWS V14.01,2013-03-16 23:00:00,
2013-03-16 18:03:00,36.0,29.2,30.07,NNE,31,3.0,8.0,76,0.00,,,0.00,VWS V14.01,2013-03-16 23:03:00,
2013-03-16 18:08:00,35.9,29.1,30.07,NNE,32,5.0,8.0,76,0.00,,,0.00,VWS V14.01,2013-03-16 23:08:00,
2013-03-16 18:10:00,35.9,29.1,30.07,NNE,32,5.0,8.0,76,0.00,,CLR,0.00,VWS V14.01,2013-03-16 23:10:00,
2013-03-16 18:14:00,35.7,28.9,30.07,NNE,25,5.0,6.0,76,0.00,,,0.00,VWS V14.01,2013-03-16 23:14:00,
2013-03-16 18:19:00,35.6,29.1,30.07,NE,43,0.0,1.0,77,0.00,,,0.00,VWS V14.01,2013-03-16 23:19:00,
2013-03-16 18:20:00,35.6,29.1,30.07,NE,43,1.0,6.0,77,0.00,,CLR,0.00,VWS V14.01,2013-03-16 23:20:00,
2013-03-16 18:24:00,35.5,29.0,30.07,NE,51,4.0,5.0,77,0.00,,,0.00,VWS V14.01,2013-03-16 23:24:00,
2013-03-16 18:29:00,35.3,28.5,30.08,ENE,72,2.0,2.0,76,0.00,,,0.00,VWS V14.01,2013-03-16 23:29:00,
2013-03-16 18:30:00,35.3,28.5,30.08,NNE,20,2.0,7.0,76,0.00,,CLR,0.00,VWS V14.01,2013-03-16 23:30:00,
2013-03-16 18:34:00,35.3,28.8,30.08,NW,315,2.0,5.0,77,0.00,,,0.00,VWS V14.01,2013-03-16 23:34:00,
2013-03-16 18:40:00,35.3,28.5,30.08,NNE,28,3.0,5.0,76,0.00,,,0.00,VWS V14.01,2013-03-16 23:40:00,
2013-03-16 18:45:00,35.0,28.2,30.08,NNE,29,2.0,5.0,76,0.00,,,0.00,VWS V14.01,2013-03-16 23:45:00,
2013-03-16 18:50:00,34.9,28.4,30.08,WNW,303,0.0,2.0,77,0.00,,,0.00,VWS V14.01,2013-03-16 23:50:00,
2013-03-16 18:55:00,34.9,28.4,30.09,North,11,2.0,3.0,77,0.00,,,0.00,VWS V14.01,2013-03-16 23:55:00,
2013-03-16 19:00:00,34.8,28.3,30.09,NNE,31,2.0,3.0,77,0.00,,,0.00,VWS V14.01,2013-03-17 00:00:00,
2013-03-16 19:06:00,34.7,28.2,30.09,NNW,338,0.0,3.0,77,0.00,,,0.00,VWS V14.01,2013-03-17 00:06:00,
2013-03-16 19:10:00,34.7,28.2,30.10,North,3,2.0,3.0,77,0.00,,CLR,0.00,VWS V14.01,2013-03-17 00:10:00,
2013-03-16 19:11:00,34.6,28.1,30.10,NE,51,2.0,4.0,77,0.00,,,0.00,VWS V14.01,2013-03-17 00:11:00,
2013-03-16 19:16:00,34.6,28.1,30.10,NE,53,0.0,4.0,77,0.00,,,0.00,VWS V14.01,2013-03-17 00:16:00,
2013-03-16 19:20:00,34.5,28.4,30.10,NE,49,2.0,4.0,78,0.00,,CLR,0.00,VWS V14.01,2013-03-17 00:20:00,
2013-03-16 19:22:00,34.5,28.0,30.10,North,6,2.0,4.0,77,0.00,,,0.00,VWS V14.01,2013-03-17 00:22:00,
2013-03-16 19:27:00,34.4,28.3,30.11,ENE,61,1.0,6.0,78,0.00,,,0.00,VWS V14.01,2013-03-17 00:27:00,
2013-03-16 19:30:00,34.3,28.2,30.11,NE,41,2.0,6.0,78,0.00,,CLR,0.00,VWS V14.01,2013-03-17 00:30:00,
2013-03-16 19:32:00,34.3,28.5,30.11,NE,49,2.0,4.0,79,0.00,,,0.00,VWS V14.01,2013-03-17 00:32:00,
2013-03-16 19:37:00,33.9,28.7,30.11,ENE,62,3.0,5.0,81,0.00,,,0.00,VWS V14.01,2013-03-17 00:37:00,
2013-03-16 19:40:00,33.8,28.6,30.11,East,84,6.0,7.0,81,0.00,,CLR,0.00,VWS V14.01,2013-03-17 00:40:00,
2013-03-16 19:42:00,33.5,28.6,30.12,ENE,70,4.0,7.0,82,0.00,,,0.00,VWS V14.01,2013-03-17 00:42:00,
2013-03-16 19:47:00,33.4,28.5,30.12,ENE,73,3.0,7.0,82,0.00,,,0.00,VWS V14.01,2013-03-17 00:47:00,
2013-03-16 19:50:00,33.4,28.5,30.12,ENE,70,3.0,7.0,82,0.00,,CLR,0.00,VWS V14.01,2013-03-17 00:50:00,
2013-03-16 19:52:00,33.3,28.4,30.12,NE,56,4.0,5.0,82,0.00,,,0.00,VWS V14.01,2013-03-17 00:52:00,
2013-03-16 19:58:00,33.2,28.3,30.12,ENE,73,2.0,6.0,82,0.00,,,0.00,VWS V14.01,2013-03-17 00:58:00,
2013-03-16 20:00:00,33.2,28.6,30.12,East,84,5.0,6.0,83,0.00,,CLR,0.00,VWS V14.01,2013-03-17 01:00:00,
2013-03-16 20:03:00,33.1,28.5,30.12,ENE,60,3.0,5.0,83,0.00,,,0.00,VWS V14.01,2013-03-17 01:03:00,
2013-03-16 20:08:00,33.0,28.4,30.12,ENE,66,5.0,7.0,83,0.00,,,0.00,VWS V14.01,2013-03-17 01:08:00,
2013-03-16 20:10:00,33.0,28.4,30.12,ENE,58,5.0,7.0,83,0.00,,CLR,0.00,VWS V14.01,2013-03-17 01:10:00,
2013-03-16 20:13:00,32.9,28.3,30.13,ENE,77,3.0,6.0,83,0.00,,,0.00,VWS V14.01,2013-03-17 01:13:00,
2013-03-16 20:18:00,32.8,28.2,30.13,ENE,67,3.0,3.0,83,0.00,,,0.00,VWS V14.01,2013-03-17 01:18:00,
2013-03-16 20:20:00,32.8,28.2,30.13,ENE,67,2.0,6.0,83,0.00,,CLR,0.00,VWS V14.01,2013-03-17 01:20:00,
2013-03-16 20:23:00,32.8,28.2,30.13,SSE,148,1.0,4.0,83,0.00,,,0.00,VWS V14.01,2013-03-17 01:23:00,
2013-03-16 20:28:00,32.7,28.1,30.13,ENE,72,2.0,4.0,83,0.00,,,0.00,VWS V14.01,2013-03-17 01:28:00,
2013-03-16 20:30:00,32.7,28.1,30.13,ENE,72,2.0,4.0,83,0.00,,CLR,0.00,VWS V14.01,2013-03-17 01:30:00,
2013-03-16 20:33:00,32.6,28.0,30.14,ENE,63,2.0,5.0,83,0.00,,,0.00,VWS V14.01,2013-03-17 01:33:00,
2013-03-16 20:38:00,32.5,27.9,30.13,East,91,2.0,6.0,83,0.00,,,0.00,VWS V14.01,2013-03-17 01:38:00,
2013-03-16 20:40:00,32.5,27.9,30.13,East,91,2.0,6.0,83,0.00,,CLR,0.00,VWS V14.01,2013-03-17 01:40:00,
2013-03-16 20:43:00,32.4,28.1,30.13,East,92,1.0,4.0,84,0.00,,,0.00,VWS V14.01,2013-03-17 01:43:00,
2013-03-16 20:49:00,32.3,28.0,30.14,ENE,69,2.0,4.0,84,0.00,,,0.00,VWS V14.01,2013-03-17 01:49:00,
2013-03-16 20:50:00,32.3,28.0,30.14,ENE,71,3.0,4.0,84,0.00,,CLR,0.00,VWS V14.01,2013-03-17 01:50:00,
2013-03-16 20:54:00,32.2,27.9,30.14,ENE,75,3.0,5.0,84,0.00,,,0.00,VWS V14.01,2013-03-17 01:54:00,
2013-03-16 20:59:00,32.1,27.8,30.14,ENE,72,3.0,4.0,84,0.00,,,0.00,VWS V14.01,2013-03-17 01:59:00,
2013-03-16 21:00:00,32.1,27.8,30.14,ENE,73,3.0,5.0,84,0.00,,CLR,0.00,VWS V14.01,2013-03-17 02:00:00,
2013-03-16 21:04:00,32.0,27.7,30.14,ENE,72,3.0,5.0,84,0.00,,,0.00,VWS V14.01,2013-03-17 02:04:00,
2013-03-16 21:09:00,31.9,27.6,30.14,ENE,73,2.0,3.0,84,0.00,,,0.00,VWS V14.01,2013-03-17 02:09:00,
2013-03-16 21:10:00,31.9,27.6,30.14,ENE,68,1.0,5.0,84,0.00,,CLR,0.00,VWS V14.01,2013-03-17 02:10:00,
2013-03-16 21:14:00,31.8,27.8,30.14,ENE,68,2.0,4.0,85,0.00,,,0.00,VWS V14.01,2013-03-17 02:14:00,
2013-03-16 21:20:00,31.7,27.7,30.14,ENE,77,2.0,2.0,85,0.00,,,0.00,VWS V14.01,2013-03-17 02:20:00,
2013-03-16 21:25:00,31.7,27.7,30.14,ENE,78,2.0,3.0,85,0.00,,,0.00,VWS V14.01,2013-03-17 02:25:00,
2013-03-16 21:30:00,31.6,27.6,30.14,ENE,61,2.0,2.0,85,0.00,,,0.00,VWS V14.01,2013-03-17 02:30:00,
2013-03-16 21:35:00,31.5,27.5,30.14,ENE,73,3.0,5.0,85,0.00,,,0.00,VWS V14.01,2013-03-17 02:35:00,
2013-03-16 21:40:00,31.4,27.4,30.14,ENE,63,3.0,3.0,85,0.00,,,0.00,VWS V14.01,2013-03-17 02:40:00,
2013-03-16 21:45:00,31.3,27.6,30.14,ENE,70,2.0,4.0,86,0.00,,,0.00,VWS V14.01,2013-03-17 02:45:00,
2013-03-16 21:50:00,31.3,27.6,30.14,ENE,71,3.0,3.0,86,0.00,,,0.00,VWS V14.01,2013-03-17 02:50:00,
2013-03-16 21:56:00,31.2,27.5,30.14,East,82,3.0,4.0,86,0.00,,,0.00,VWS V14.01,2013-03-17 02:56:00,
2013-03-16 22:00:00,31.2,27.8,30.14,ENE,73,3.0,4.0,87,0.00,,CLR,0.00,VWS V14.01,2013-03-17 03:00:00,
2013-03-16 22:01:00,31.2,27.8,30.14,ENE,74,2.0,3.0,87,0.00,,,0.00,VWS V14.01,2013-03-17 03:01:00,
2013-03-16 22:06:00,31.1,27.7,30.15,ENE,72,3.0,3.0,87,0.00,,,0.00,VWS V14.01,2013-03-17 03:06:00,
2013-03-16 22:10:00,31.1,27.7,30.15,ENE,73,1.0,3.0,87,0.00,,CLR,0.00,VWS V14.01,2013-03-17 03:10:00,
2013-03-16 22:12:00,31.1,27.7,30.15,ENE,70,2.0,4.0,87,0.00,,,0.00,VWS V14.01,2013-03-17 03:12:00,
2013-03-16 22:17:00,31.0,27.6,30.15,ENE,77,2.0,4.0,87,0.00,,,0.00,VWS V14.01,2013-03-17 03:17:00,
2013-03-16 22:20:00,31.0,27.6,30.15,ENE,64,1.0,4.0,87,0.00,,CLR,0.00,VWS V14.01,2013-03-17 03:20:00,
2013-03-16 22:22:00,30.9,27.5,30.15,NE,55,2.0,3.0,87,0.00,,,0.00,VWS V14.01,2013-03-17 03:22:00,
2013-03-16 22:27:00,30.9,27.5,30.15,ENE,66,3.0,5.0,87,0.00,,,0.00,VWS V14.01,2013-03-17 03:27:00,
2013-03-16 22:30:00,30.9,27.2,30.15,ENE,66,2.0,5.0,86,0.00,,CLR,0.00,VWS V14.01,2013-03-17 03:30:00,
2013-03-16 22:32:00,30.9,27.2,30.15,ENE,70,2.0,3.0,86,0.00,,,0.00,VWS V14.01,2013-03-17 03:32:00,
2013-03-16 22:37:00,30.8,27.1,30.15,ENE,70,3.0,5.0,86,0.00,,,0.00,VWS V14.01,2013-03-17 03:37:00,
2013-03-16 22:40:00,30.8,27.1,30.15,NE,39,3.0,5.0,86,0.00,,CLR,0.00,VWS V14.01,2013-03-17 03:40:00,
2013-03-16 22:43:00,30.8,27.1,30.15,NE,51,2.0,5.0,86,0.00,,,0.00,VWS V14.01,2013-03-17 03:43:00,
2013-03-16 22:48:00,30.8,27.1,30.15,ENE,60,1.0,5.0,86,0.00,,,0.00,VWS V14.01,2013-03-17 03:48:00,
2013-03-16 22:50:00,30.8,27.1,30.15,NE,56,1.0,5.0,86,0.00,,CLR,0.00,VWS V14.01,2013-03-17 03:50:00,
2013-03-16 22:53:00,30.7,27.0,30.15,ENE,71,1.0,3.0,86,0.00,,,0.00,VWS V14.01,2013-03-17 03:53:00,
2013-03-16 22:58:00,30.6,26.9,30.16,NE,55,2.0,4.0,86,0.00,,,0.00,VWS V14.01,2013-03-17 03:58:00,
2013-03-16 23:00:00,30.6,26.9,30.16,NE,47,1.0,2.0,86,0.00,,,0.00,VWS V14.01,2013-03-17 04:00:00,
2013-03-16 23:01:00,30.6,26.9,30.16,NE,45,0.0,2.0,86,0.00,,,0.00,VWS V14.01,2013-03-17 04:01:00,
2013-03-16 23:02:00,30.6,26.9,30.16,NE,46,0.0,2.0,86,0.00,,,0.00,VWS V14.01,2013-03-17 04:02:00,
2013-03-16 23:07:00,30.5,26.8,30.16,NE,36,2.0,3.0,86,0.00,,,0.00,VWS V14.01,2013-03-17 04:07:00,
2013-03-16 23:10:00,30.5,26.8,30.16,NE,49,3.0,3.0,86,0.00,,CLR,0.00,VWS V14.01,2013-03-17 04:10:00,
2013-03-16 23:12:00,30.5,26.8,30.16,ENE,67,2.0,3.0,86,0.00,,,0.00,VWS V14.01,2013-03-17 04:12:00,
2013-03-16 23:18:00,30.5,26.8,30.16,ENE,60,2.0,4.0,86,0.00,,,0.00,VWS V14.01,2013-03-17 04:18:00,
2013-03-16 23:20:00,30.5,26.8,30.16,NE,53,2.0,4.0,86,0.00,,CLR,0.00,VWS V14.01,2013-03-17 04:20:00,
2013-03-16 23:23:00,30.4,26.7,30.16,NE,51,3.0,4.0,86,0.00,,,0.00,VWS V14.01,2013-03-17 04:23:00,
2013-03-16 23:28:00,30.4,26.7,30.16,ENE,58,2.0,4.0,86,0.00,,,0.00,VWS V14.01,2013-03-17 04:28:00,
2013-03-16 23:30:00,30.4,26.7,30.16,NNE,12,2.0,4.0,86,0.00,,CLR,0.00,VWS V14.01,2013-03-17 04:30:00,
2013-03-16 23:33:00,30.4,26.7,30.16,NE,46,2.0,3.0,86,0.00,,,0.00,VWS V14.01,2013-03-17 04:33:00,
2013-03-16 23:38:00,30.4,26.7,30.16,ENE,65,2.0,3.0,86,0.00,,,0.00,VWS V14.01,2013-03-17 04:38:00,
2013-03-16 23:40:00,30.4,26.7,30.16,ENE,65,2.0,3.0,86,0.00,,CLR,0.00,VWS V14.01,2013-03-17 04:40:00,
2013-03-16 23:44:00,30.4,26.7,30.16,NE,39,2.0,4.0,86,0.00,,,0.00,VWS V14.01,2013-03-17 04:44:00,
2013-03-16 23:49:00,30.4,26.7,30.16,NE,43,3.0,3.0,86,0.00,,,0.00,VWS V14.01,2013-03-17 04:49:00,
2013-03-16 23:50:00,30.4,26.7,30.16,NNE,30,3.0,4.0,86,0.00,,CLR,0.00,VWS V14.01,2013-03-17 04:50:00,
2013-03-16 23:54:00,30.4,26.7,30.16,NE,49,1.0,4.0,86,0.00,,,0.00,VWS V14.01,2013-03-17 04:54:00,
2013-03-16 23:59:00,30.4,26.7,30.16,ENE,64,3.0,3.0,86,0.00,,,0.00,VWS V14.01,2013-03-17 04:59:00,